createdAt,value
2023-04-16T00:00:59.746Z,65.11
2023-04-16T00:01:59.795Z,65.05
2023-04-16T00:03:00.063Z,64.96
2023-04-16T00:04:00.095Z,65.00
2023-04-16T00:04:59.686Z,65.19
2023-04-16T00:05:59.669Z,65.14
2023-04-16T00:06:59.661Z,65.04
2023-04-16T00:07:59.647Z,64.98
2023-04-16T00:08:59.650Z,64.86
2023-04-16T00:09:59.619Z,64.69
2023-04-16T00:10:59.644Z,64.55
2023-04-16T00:11:59.604Z,64.49
2023-04-16T00:12:59.604Z,64.51
2023-04-16T00:13:59.601Z,64.43
2023-04-16T00:14:59.553Z,64.38
2023-04-16T00:15:59.565Z,64.43
2023-04-16T00:16:59.579Z,64.56
2023-04-16T00:17:59.603Z,64.38
2023-04-16T00:18:59.510Z,64.37
2023-04-16T00:19:59.480Z,64.16
2023-04-16T00:20:59.507Z,64.20
2023-04-16T00:21:59.458Z,64.27
2023-04-16T00:22:59.451Z,64.20
2023-04-16T00:23:59.436Z,64.08
2023-04-16T00:24:59.429Z,64.01
2023-04-16T00:25:59.438Z,63.95
2023-04-16T00:26:59.410Z,63.87
2023-04-16T00:27:59.411Z,63.98
2023-04-16T00:28:59.388Z,64.01
2023-04-16T00:29:59.393Z,64.42
2023-04-16T00:30:59.409Z,64.91
2023-04-16T00:31:59.340Z,64.59
2023-04-16T00:32:59.345Z,64.56
2023-04-16T00:33:59.358Z,64.54
2023-04-16T00:34:59.297Z,64.44
2023-04-16T00:35:59.297Z,64.41
2023-04-16T00:36:59.287Z,64.45
2023-04-16T00:37:59.292Z,64.18
2023-04-16T00:38:59.300Z,64.26
2023-04-16T00:39:59.298Z,64.36
2023-04-16T00:40:59.341Z,64.33
2023-04-16T00:41:59.394Z,64.36
2023-04-16T00:42:59.362Z,64.38
2023-04-16T00:43:59.376Z,64.38
2023-04-16T00:44:59.408Z,64.41
2023-04-16T00:45:59.460Z,64.54
2023-04-16T00:46:59.407Z,64.53
2023-04-16T00:48:00.547Z,64.56
2023-04-16T00:48:59.434Z,64.80
2023-04-16T00:49:59.424Z,64.67
2023-04-16T00:50:59.449Z,64.99
2023-04-16T00:51:59.420Z,64.85
2023-04-16T00:52:59.458Z,65.37
2023-04-16T00:53:59.496Z,65.01
2023-04-16T00:54:59.515Z,64.94
2023-04-16T00:55:59.503Z,64.86
2023-04-16T00:56:59.537Z,64.81
2023-04-16T00:57:59.517Z,64.62
2023-04-16T00:58:59.536Z,64.49
2023-04-16T00:59:59.521Z,64.51
2023-04-16T01:00:59.538Z,64.45
2023-04-16T01:01:59.701Z,64.48
2023-04-16T01:02:59.694Z,64.45
2023-04-16T01:03:59.713Z,64.46
2023-04-16T01:04:59.574Z,64.41
2023-04-16T01:05:59.579Z,64.37
2023-04-16T01:06:59.582Z,64.47
2023-04-16T01:07:59.575Z,64.51
2023-04-16T01:08:59.586Z,64.41
2023-04-16T01:09:59.598Z,64.25
2023-04-16T01:10:59.602Z,64.35
2023-04-16T01:11:59.635Z,64.14
2023-04-16T01:12:59.653Z,64.11
2023-04-16T01:13:59.684Z,64.47
2023-04-16T01:14:59.712Z,64.79
2023-04-16T01:15:59.782Z,64.73
2023-04-16T01:16:59.735Z,66.15
2023-04-16T01:17:59.876Z,66.34
2023-04-16T01:18:59.716Z,66.20
2023-04-16T01:19:59.759Z,65.79
2023-04-16T01:20:59.754Z,65.61
2023-04-16T01:21:59.795Z,65.49
2023-04-16T01:22:59.762Z,65.33
2023-04-16T01:23:59.772Z,65.07
2023-04-16T01:24:59.751Z,65.09
2023-04-16T01:25:59.769Z,64.98
2023-04-16T01:26:59.792Z,65.39
2023-04-16T01:27:59.792Z,66.22
2023-04-16T01:28:59.858Z,65.88
2023-04-16T01:29:59.907Z,65.56
2023-04-16T01:30:59.992Z,65.45
2023-04-16T01:32:00.036Z,65.38
2023-04-16T01:33:00.065Z,65.22
2023-04-16T01:34:00.036Z,65.02
2023-04-16T01:35:00.033Z,64.85
2023-04-16T01:36:00.065Z,64.71
2023-04-16T01:37:00.148Z,64.83
2023-04-16T01:38:00.151Z,64.89
2023-04-16T01:39:00.179Z,64.90
2023-04-16T01:40:00.201Z,64.94
2023-04-16T01:41:00.259Z,64.97
2023-04-16T01:42:00.285Z,64.92
2023-04-16T01:43:00.266Z,64.94
2023-04-16T01:44:00.290Z,64.90
2023-04-16T01:45:00.278Z,64.93
2023-04-16T01:46:00.296Z,64.98
2023-04-16T01:47:00.431Z,65.04
2023-04-16T01:48:00.336Z,65.44
2023-04-16T01:49:00.319Z,65.44
2023-04-16T01:50:00.358Z,65.46
2023-04-16T01:51:00.335Z,65.47
2023-04-16T01:52:00.332Z,65.36
2023-04-16T01:53:00.349Z,65.20
2023-04-16T01:54:00.354Z,65.08
2023-04-16T01:55:00.408Z,65.12
2023-04-16T01:56:00.393Z,65.00
2023-04-16T01:57:00.403Z,64.96
2023-04-16T01:58:00.387Z,64.80
2023-04-16T01:59:00.418Z,64.39
2023-04-16T02:00:00.418Z,64.32
2023-04-16T02:01:00.532Z,64.11
2023-04-16T02:02:00.580Z,63.91
2023-04-16T02:03:00.691Z,63.84
2023-04-16T02:04:00.650Z,63.91
2023-04-16T02:05:00.440Z,63.81
2023-04-16T02:06:00.477Z,63.72
2023-04-16T02:07:00.444Z,63.60
2023-04-16T02:08:00.472Z,63.58
2023-04-16T02:09:00.488Z,63.63
2023-04-16T02:10:00.511Z,63.82
2023-04-16T02:11:00.495Z,63.79
2023-04-16T02:12:00.516Z,63.78
2023-04-16T02:13:00.531Z,63.79
2023-04-16T02:14:00.572Z,63.82
2023-04-16T02:15:00.601Z,63.72
2023-04-16T02:16:00.720Z,63.73
2023-04-16T02:17:00.695Z,63.79
2023-04-16T02:18:00.814Z,63.73
2023-04-16T02:19:00.802Z,63.66
2023-04-16T02:20:00.909Z,63.77
2023-04-16T02:21:00.899Z,63.90
2023-04-16T02:22:00.965Z,64.21
2023-04-16T02:23:00.993Z,64.58
2023-04-16T02:24:01.020Z,65.48
2023-04-16T02:25:01.108Z,65.38
2023-04-16T02:26:01.121Z,65.08
2023-04-16T02:27:01.170Z,64.67
2023-04-16T02:28:01.216Z,64.49
2023-04-16T02:29:01.255Z,64.43
2023-04-16T02:30:01.387Z,64.41
2023-04-16T02:31:01.340Z,64.43
2023-04-16T02:32:01.396Z,64.28
2023-04-16T02:33:01.449Z,64.23
2023-04-16T02:34:01.373Z,64.34
2023-04-16T02:35:01.452Z,64.41
2023-04-16T02:36:01.498Z,64.53
2023-04-16T02:37:01.501Z,64.60
2023-04-16T02:38:01.617Z,64.59
2023-04-16T02:39:01.600Z,64.56
2023-04-16T02:40:01.725Z,64.56
2023-04-16T02:41:01.733Z,64.70
2023-04-16T02:42:01.724Z,65.08
2023-04-16T02:43:01.783Z,64.87
2023-04-16T02:44:01.857Z,64.61
2023-04-16T02:45:01.881Z,64.42
2023-04-16T02:46:02.052Z,64.21
2023-04-16T02:47:01.939Z,64.09
2023-04-16T02:48:02.138Z,64.03
2023-04-16T02:49:02.052Z,63.91
2023-04-16T02:50:02.081Z,63.88
2023-04-16T02:51:02.140Z,63.98
2023-04-16T02:52:02.229Z,63.98
2023-04-16T02:53:02.208Z,63.86
2023-04-16T02:54:02.283Z,63.73
2023-04-16T02:55:02.298Z,63.58
2023-04-16T02:56:02.339Z,63.44
2023-04-16T02:57:02.396Z,63.33
2023-04-16T02:58:02.418Z,63.34
2023-04-16T02:59:02.474Z,63.20
2023-04-16T03:00:02.504Z,63.27
2023-04-16T03:01:02.601Z,63.33
2023-04-16T03:02:02.555Z,63.30
2023-04-16T03:03:02.646Z,63.44
2023-04-16T03:04:02.629Z,64.69
2023-04-16T03:05:02.636Z,64.22
2023-04-16T03:06:02.671Z,63.90
2023-04-16T03:07:02.960Z,63.89
2023-04-16T03:08:02.704Z,63.85
2023-04-16T03:09:02.714Z,63.91
2023-04-16T03:10:02.729Z,63.98
2023-04-16T03:11:02.731Z,64.04
2023-04-16T03:12:02.707Z,64.30
2023-04-16T03:13:02.743Z,64.37
2023-04-16T03:14:02.759Z,64.38
2023-04-16T03:15:02.834Z,64.35
2023-04-16T03:16:02.887Z,64.38
2023-04-16T03:17:02.803Z,64.40
2023-04-16T03:18:02.895Z,64.35
2023-04-16T03:19:02.927Z,64.37
2023-04-16T03:20:02.942Z,64.60
2023-04-16T03:21:02.969Z,64.74
2023-04-16T03:22:03.005Z,64.50
2023-04-16T03:23:03.032Z,64.53
2023-04-16T03:24:03.052Z,64.44
2023-04-16T03:25:03.070Z,64.47
2023-04-16T03:26:03.131Z,64.52
2023-04-16T03:27:03.117Z,64.64
2023-04-16T03:28:03.127Z,64.52
2023-04-16T03:29:03.159Z,64.83
2023-04-16T03:30:03.200Z,64.69
2023-04-16T03:31:03.271Z,64.52
2023-04-16T03:32:03.258Z,64.67
2023-04-16T03:33:03.275Z,64.46
2023-04-16T03:34:03.308Z,64.41
2023-04-16T03:35:03.334Z,64.62
2023-04-16T03:36:03.352Z,64.58
2023-04-16T03:37:03.377Z,64.68
2023-04-16T03:38:03.429Z,64.57
2023-04-16T03:39:03.431Z,65.88
2023-04-16T03:40:03.464Z,64.99
2023-04-16T03:41:03.476Z,64.72
2023-04-16T03:42:03.517Z,64.46
2023-04-16T03:43:03.651Z,64.29
2023-04-16T03:44:03.594Z,64.20
2023-04-16T03:45:03.651Z,64.03
2023-04-16T03:46:03.680Z,63.90
2023-04-16T03:47:03.693Z,63.72
2023-04-16T03:48:03.683Z,63.69
2023-04-16T03:49:03.682Z,63.61
2023-04-16T03:50:03.713Z,63.61
2023-04-16T03:51:03.729Z,63.63
2023-04-16T03:52:03.780Z,63.60
2023-04-16T03:53:03.798Z,63.73
2023-04-16T03:54:03.809Z,63.69
2023-04-16T03:55:03.808Z,63.80
2023-04-16T03:56:03.784Z,63.98
2023-04-16T03:57:03.811Z,63.97
2023-04-16T03:58:03.847Z,63.70
2023-04-16T03:59:04.429Z,63.53
2023-04-16T04:00:03.848Z,63.41
2023-04-16T04:01:03.856Z,63.32
2023-04-16T04:02:03.990Z,62.99
2023-04-16T04:03:04.277Z,63.15
2023-04-16T04:04:04.290Z,63.12
2023-04-16T04:05:04.055Z,63.12
2023-04-16T04:06:03.882Z,62.91
2023-04-16T04:07:03.909Z,62.91
2023-04-16T04:08:03.963Z,62.99
2023-04-16T04:09:04.053Z,63.29
2023-04-16T04:10:04.098Z,63.80
2023-04-16T04:11:04.137Z,64.52
2023-04-16T04:12:04.164Z,64.71
2023-04-16T04:13:04.170Z,64.17
2023-04-16T04:14:04.238Z,64.03
2023-04-16T04:15:04.208Z,64.04
2023-04-16T04:16:04.267Z,63.88
2023-04-16T04:17:04.249Z,63.87
2023-04-16T04:18:04.317Z,63.90
2023-04-16T04:19:04.295Z,63.89
2023-04-16T04:20:04.319Z,63.89
2023-04-16T04:21:04.333Z,63.84
2023-04-16T04:22:04.371Z,63.68
2023-04-16T04:23:04.432Z,63.70
2023-04-16T04:24:04.467Z,63.80
2023-04-16T04:25:04.519Z,64.07
2023-04-16T04:26:04.555Z,64.26
2023-04-16T04:27:04.536Z,64.26
2023-04-16T04:28:04.567Z,64.37
2023-04-16T04:29:04.581Z,64.57
2023-04-16T04:30:04.615Z,64.54
2023-04-16T04:31:04.642Z,64.38
2023-04-16T04:32:04.694Z,64.65
2023-04-16T04:33:04.768Z,64.76
2023-04-16T04:34:04.782Z,64.78
2023-04-16T04:35:04.826Z,64.87
2023-04-16T04:36:04.886Z,64.95
2023-04-16T04:37:04.929Z,65.02
2023-04-16T04:38:04.933Z,65.06
2023-04-16T04:39:04.962Z,65.04
2023-04-16T04:40:04.993Z,64.86
2023-04-16T04:41:05.037Z,64.64
2023-04-16T04:42:05.064Z,64.76
2023-04-16T04:43:05.108Z,64.87
2023-04-16T04:44:05.158Z,64.87
2023-04-16T04:45:05.221Z,64.90
2023-04-16T04:46:05.306Z,65.10
2023-04-16T04:47:05.296Z,65.27
2023-04-16T04:48:05.391Z,65.18
2023-04-16T04:49:05.386Z,64.97
2023-04-16T04:50:05.438Z,65.01
2023-04-16T04:51:05.585Z,65.27
2023-04-16T04:52:05.550Z,65.23
2023-04-16T04:53:05.583Z,64.96
2023-04-16T04:54:05.626Z,65.01
2023-04-16T04:55:05.658Z,64.97
2023-04-16T04:56:12.095Z,64.88
2023-04-16T04:57:05.699Z,64.81
2023-04-16T04:58:05.688Z,64.78
2023-04-16T04:59:05.707Z,64.93
2023-04-16T05:00:05.667Z,65.18
2023-04-16T05:01:05.721Z,65.02
2023-04-16T05:02:05.707Z,64.99
2023-04-16T05:03:05.687Z,65.35
2023-04-16T05:04:05.767Z,65.12
2023-04-16T05:05:05.654Z,65.05
2023-04-16T05:06:05.640Z,65.30
2023-04-16T05:07:05.621Z,65.26
2023-04-16T05:08:05.630Z,65.54
2023-04-16T05:09:05.623Z,66.06
2023-04-16T05:10:05.593Z,65.63
2023-04-16T05:11:05.590Z,66.08
2023-04-16T05:12:05.588Z,66.28
2023-04-16T05:13:06.402Z,65.82
2023-04-16T05:14:05.554Z,65.44
2023-04-16T05:15:05.537Z,65.09
2023-04-16T05:16:05.525Z,64.80
2023-04-16T05:17:05.535Z,64.69
2023-04-16T05:18:06.074Z,65.60
2023-04-16T05:19:05.482Z,65.10
2023-04-16T05:20:05.474Z,64.79
2023-04-16T05:21:05.475Z,64.39
2023-04-16T05:22:05.512Z,64.11
2023-04-16T05:23:05.445Z,63.88
2023-04-16T05:24:05.432Z,63.58
2023-04-16T05:25:05.434Z,63.58
2023-04-16T05:26:05.425Z,64.16
2023-04-16T05:27:05.462Z,64.34
2023-04-16T05:28:05.433Z,64.26
2023-04-16T05:29:05.450Z,64.70
2023-04-16T05:30:05.470Z,65.20
2023-04-16T05:31:05.568Z,65.83
2023-04-16T05:32:05.550Z,65.93
2023-04-16T05:33:05.620Z,66.25
2023-04-16T05:34:05.725Z,66.53
2023-04-16T05:35:05.776Z,66.75
2023-04-16T05:36:05.853Z,66.49
2023-04-16T05:37:05.915Z,66.83
2023-04-16T05:38:05.961Z,66.68
2023-04-16T05:39:05.995Z,66.67
2023-04-16T05:40:05.982Z,66.71
2023-04-16T05:41:06.000Z,66.55
2023-04-16T05:42:06.063Z,66.38
2023-04-16T05:43:06.129Z,66.19
2023-04-16T05:44:06.182Z,65.99
2023-04-16T05:45:06.227Z,65.79
2023-04-16T05:46:06.296Z,65.36
2023-04-16T05:47:06.307Z,65.40
2023-04-16T05:48:06.324Z,65.29
2023-04-16T05:49:06.348Z,65.20
2023-04-16T05:50:06.413Z,65.33
2023-04-16T05:51:06.434Z,65.36
2023-04-16T05:52:06.445Z,65.45
2023-04-16T05:53:06.471Z,66.27
2023-04-16T05:54:06.488Z,66.32
2023-04-16T05:55:06.540Z,66.28
2023-04-16T05:56:06.593Z,66.53
2023-04-16T05:57:06.653Z,66.13
2023-04-16T05:58:06.694Z,66.00
2023-04-16T05:59:06.820Z,66.32
2023-04-16T06:00:06.738Z,66.77
2023-04-16T06:01:06.825Z,67.04
2023-04-16T06:02:06.907Z,67.47
2023-04-16T06:03:07.331Z,67.19
2023-04-16T06:04:07.399Z,67.24
2023-04-16T06:05:07.206Z,67.53
2023-04-16T06:06:07.247Z,67.81
2023-04-16T06:07:07.275Z,67.45
2023-04-16T06:08:07.353Z,67.45
2023-04-16T06:09:07.607Z,67.33
2023-04-16T06:10:07.441Z,66.98
2023-04-16T06:11:07.504Z,66.81
2023-04-16T06:12:07.566Z,66.82
2023-04-16T06:13:07.588Z,66.01
2023-04-16T06:14:07.623Z,65.48
2023-04-16T06:15:07.631Z,65.45
2023-04-16T06:16:07.618Z,65.39
2023-04-16T06:17:07.612Z,65.21
2023-04-16T06:18:07.644Z,65.05
2023-04-16T06:19:07.874Z,64.82
2023-04-16T06:20:07.647Z,64.32
2023-04-16T06:21:07.702Z,64.41
2023-04-16T06:22:07.751Z,64.73
2023-04-16T06:23:07.758Z,64.42
2023-04-16T06:24:07.794Z,64.36
2023-04-16T06:25:07.803Z,63.71
2023-04-16T06:26:07.831Z,63.41
2023-04-16T06:27:07.847Z,63.05
2023-04-16T06:28:07.874Z,62.65
2023-04-16T06:29:08.175Z,62.10
2023-04-16T06:30:07.919Z,61.59
2023-04-16T06:31:08.003Z,61.74
2023-04-16T06:32:08.004Z,61.52
2023-04-16T06:33:08.952Z,61.42
2023-04-16T06:34:08.093Z,61.53
2023-04-16T06:35:08.105Z,62.12
2023-04-16T06:36:08.121Z,61.92
2023-04-16T06:37:10.503Z,61.72
2023-04-16T06:38:08.095Z,61.57
2023-04-16T06:39:08.257Z,61.04
2023-04-16T06:40:08.008Z,60.63
2023-04-16T06:41:07.970Z,60.51
2023-04-16T06:42:07.943Z,60.83
2023-04-16T06:43:07.952Z,59.88
2023-04-16T06:44:07.894Z,59.80
2023-04-16T06:45:07.851Z,59.94
2023-04-16T06:46:07.815Z,59.63
2023-04-16T06:47:07.861Z,59.40
2023-04-16T06:48:07.847Z,59.41
2023-04-16T06:49:07.836Z,58.96
2023-04-16T06:50:07.700Z,58.71
2023-04-16T06:51:07.674Z,58.79
2023-04-16T06:52:07.637Z,58.46
2023-04-16T06:53:07.618Z,58.77
2023-04-16T06:54:07.611Z,58.39
2023-04-16T06:55:07.593Z,58.35
2023-04-16T06:56:07.494Z,58.38
2023-04-16T06:57:07.476Z,58.35
2023-04-16T06:58:07.425Z,58.05
2023-04-16T06:59:07.609Z,57.81
2023-04-16T07:00:07.391Z,57.54
2023-04-16T07:01:07.405Z,57.64
2023-04-16T07:02:07.372Z,57.64
2023-04-16T07:03:07.552Z,56.65
2023-04-16T07:04:07.362Z,57.50
2023-04-16T07:05:07.322Z,57.57
2023-04-16T07:06:07.294Z,58.16
2023-04-16T07:07:07.315Z,57.52
2023-04-16T07:08:07.343Z,58.04
2023-04-16T07:09:07.423Z,57.75
2023-04-16T07:10:07.393Z,56.80
2023-04-16T07:11:07.448Z,56.64
2023-04-16T07:12:07.374Z,56.64
2023-04-16T07:13:07.331Z,57.25
2023-04-16T07:14:07.333Z,57.17
2023-04-16T07:15:07.352Z,57.16
2023-04-16T07:16:07.417Z,57.01
2023-04-16T07:17:07.410Z,57.62
2023-04-16T07:18:07.502Z,57.68
2023-04-16T07:19:07.691Z,57.97
2023-04-16T07:20:07.566Z,58.12
2023-04-16T07:21:07.620Z,58.00
2023-04-16T07:22:07.657Z,58.25
2023-04-16T07:23:07.687Z,58.22
2023-04-16T07:24:07.713Z,58.77
2023-04-16T07:25:07.725Z,58.24
2023-04-16T07:26:07.770Z,58.25
2023-04-16T07:27:07.747Z,58.43
2023-04-16T07:28:07.721Z,58.14
2023-04-16T07:29:07.858Z,58.02
2023-04-16T07:30:07.718Z,57.50
2023-04-16T07:31:07.737Z,57.64
2023-04-16T07:32:07.816Z,57.40
2023-04-16T07:33:07.823Z,57.47
2023-04-16T07:34:07.747Z,57.38
2023-04-16T07:35:07.723Z,57.28
2023-04-16T07:36:07.735Z,57.11
2023-04-16T07:37:07.700Z,57.11
2023-04-16T07:38:07.726Z,57.58
2023-04-16T07:39:08.003Z,57.84
2023-04-16T07:40:07.795Z,57.32
2023-04-16T07:41:07.802Z,57.39
2023-04-16T07:42:07.830Z,57.18
2023-04-16T07:43:07.821Z,56.42
2023-04-16T07:44:07.822Z,56.22
2023-04-16T07:45:07.929Z,56.06
2023-04-16T07:46:07.935Z,55.93
2023-04-16T07:47:07.902Z,56.45
2023-04-16T07:48:07.901Z,56.57
2023-04-16T07:49:08.098Z,56.32
2023-04-16T07:50:07.927Z,56.90
2023-04-16T07:51:07.939Z,56.99
2023-04-16T07:52:07.950Z,55.26
2023-04-16T07:53:08.039Z,55.04
2023-04-16T07:54:07.956Z,55.18
2023-04-16T07:55:07.945Z,55.37
2023-04-16T07:56:07.915Z,55.28
2023-04-16T07:57:07.891Z,54.48
2023-04-16T07:58:07.872Z,54.79
2023-04-16T07:59:20.900Z,54.80
2023-04-16T08:00:07.760Z,54.47
2023-04-16T08:01:07.695Z,53.26
2023-04-16T08:02:07.706Z,53.53
2023-04-16T08:03:07.891Z,53.21
2023-04-16T08:04:07.673Z,53.60
2023-04-16T08:05:07.529Z,53.41
2023-04-16T08:06:07.450Z,52.45
2023-04-16T08:07:07.386Z,52.77
2023-04-16T08:08:07.342Z,52.30
2023-04-16T08:09:07.432Z,52.17
2023-04-16T08:10:07.277Z,52.16
2023-04-16T08:11:07.196Z,51.97
2023-04-16T08:12:07.126Z,51.72
2023-04-16T08:13:07.090Z,51.76
2023-04-16T08:14:07.054Z,52.03
2023-04-16T08:15:06.981Z,51.93
2023-04-16T08:16:06.943Z,51.45
2023-04-16T08:17:06.847Z,51.40
2023-04-16T08:18:06.847Z,51.19
2023-04-16T08:19:06.737Z,50.93
2023-04-16T08:20:06.665Z,50.67
2023-04-16T08:21:06.607Z,50.25
2023-04-16T08:22:06.531Z,50.66
2023-04-16T08:23:06.471Z,50.36
2023-04-16T08:24:06.406Z,49.90
2023-04-16T08:25:06.343Z,50.39
2023-04-16T08:26:06.321Z,50.89
2023-04-16T08:27:17.749Z,50.25
2023-04-16T08:28:06.235Z,49.93
2023-04-16T08:29:06.154Z,49.23
2023-04-16T08:30:06.114Z,49.28
2023-04-16T08:31:06.052Z,49.27
2023-04-16T08:32:05.960Z,49.39
2023-04-16T08:33:05.998Z,49.46
2023-04-16T08:34:05.933Z,49.20
2023-04-16T08:35:05.769Z,49.64
2023-04-16T08:36:05.720Z,48.69
2023-04-16T08:37:05.707Z,48.44
2023-04-16T08:38:05.588Z,49.50
2023-04-16T08:39:05.524Z,49.45
2023-04-16T08:40:05.450Z,49.36
2023-04-16T08:41:05.396Z,48.87
2023-04-16T08:42:05.316Z,47.96
2023-04-16T08:43:05.228Z,48.66
2023-04-16T08:44:05.156Z,49.02
2023-04-16T08:45:05.076Z,49.01
2023-04-16T08:46:05.083Z,48.04
2023-04-16T08:47:05.012Z,47.81
2023-04-16T08:48:04.861Z,48.24
2023-04-16T08:49:04.756Z,47.76
2023-04-16T08:50:04.687Z,47.87
2023-04-16T08:51:04.634Z,47.50
2023-04-16T08:52:04.540Z,47.69
2023-04-16T08:53:04.465Z,47.24
2023-04-16T08:54:04.395Z,46.79
2023-04-16T08:55:04.319Z,47.67
2023-04-16T08:56:04.252Z,47.52
2023-04-16T08:57:04.183Z,47.19
2023-04-16T08:58:04.112Z,47.13
2023-04-16T08:59:04.051Z,47.25
2023-04-16T09:00:03.970Z,46.96
2023-04-16T09:01:03.954Z,46.26
2023-04-16T09:02:04.029Z,46.37
2023-04-16T09:03:03.779Z,45.77
2023-04-16T09:04:03.902Z,46.03
2023-04-16T09:05:03.593Z,45.98
2023-04-16T09:06:03.501Z,46.22
2023-04-16T09:07:03.442Z,45.84
2023-04-16T09:08:03.349Z,45.83
2023-04-16T09:09:03.284Z,45.61
2023-04-16T09:10:03.198Z,46.19
2023-04-16T09:11:03.130Z,45.32
2023-04-16T09:12:03.039Z,45.49
2023-04-16T09:13:02.962Z,45.34
2023-04-16T09:14:02.884Z,45.18
2023-04-16T09:15:02.871Z,45.03
2023-04-16T09:16:02.751Z,45.56
2023-04-16T09:17:02.626Z,46.14
2023-04-16T09:18:02.633Z,45.67
2023-04-16T09:19:02.468Z,45.48
2023-04-16T09:20:02.391Z,45.17
2023-04-16T09:21:02.309Z,45.57
2023-04-16T09:22:02.284Z,45.27
2023-04-16T09:23:02.253Z,44.64
2023-04-16T09:24:02.246Z,44.98
2023-04-16T09:25:02.185Z,44.90
2023-04-16T09:26:02.156Z,45.02
2023-04-16T09:27:02.095Z,45.08
2023-04-16T09:28:02.028Z,46.01
2023-04-16T09:29:01.959Z,46.05
2023-04-16T09:30:01.969Z,45.34
2023-04-16T09:31:01.844Z,45.83
2023-04-16T09:32:01.845Z,45.26
2023-04-16T09:33:01.798Z,45.98
2023-04-16T09:34:01.694Z,45.65
2023-04-16T09:35:01.610Z,45.34
2023-04-16T09:36:01.485Z,45.66
2023-04-16T09:37:01.425Z,45.92
2023-04-16T09:38:01.360Z,45.29
2023-04-16T09:39:01.285Z,45.52
2023-04-16T09:40:01.232Z,46.37
2023-04-16T09:41:01.155Z,46.04
2023-04-16T09:42:01.135Z,46.30
2023-04-16T09:43:01.095Z,45.95
2023-04-16T09:44:01.031Z,45.56
2023-04-16T09:45:04.075Z,44.94
2023-04-16T09:46:02.598Z,45.05
2023-04-16T09:47:00.983Z,44.29
2023-04-16T09:48:00.912Z,43.97
2023-04-16T09:49:00.802Z,44.53
2023-04-16T09:50:00.739Z,44.18
2023-04-16T09:51:00.632Z,46.04
2023-04-16T09:52:00.546Z,44.42
2023-04-16T09:53:00.446Z,44.58
2023-04-16T09:54:00.370Z,44.35
2023-04-16T09:55:00.288Z,44.69
2023-04-16T09:56:00.202Z,44.13
2023-04-16T09:57:00.134Z,44.25
2023-04-16T09:58:00.043Z,43.16
2023-04-16T09:58:59.932Z,43.91
2023-04-16T09:59:59.848Z,43.79
2023-04-16T10:00:59.815Z,44.13
2023-04-16T10:02:14.464Z,42.78
2023-04-16T10:02:59.660Z,43.65
2023-04-16T10:03:59.602Z,43.50
2023-04-16T10:04:59.397Z,42.96
2023-04-16T10:05:59.331Z,43.05
2023-04-16T10:06:59.239Z,43.32
2023-04-16T10:07:59.141Z,43.77
2023-04-16T10:08:59.053Z,41.77
2023-04-16T10:09:59.034Z,41.20
2023-04-16T10:10:58.869Z,42.15
2023-04-16T10:11:58.789Z,43.60
2023-04-16T10:12:58.701Z,42.82
2023-04-16T10:13:58.620Z,43.06
2023-04-16T10:14:58.594Z,43.45
2023-04-16T10:15:58.439Z,43.87
2023-04-16T10:16:58.360Z,43.50
2023-04-16T10:17:58.294Z,43.48
2023-04-16T10:18:58.152Z,43.12
2023-04-16T10:19:58.067Z,42.94
2023-04-16T10:20:57.966Z,43.70
2023-04-16T10:21:57.872Z,42.76
2023-04-16T10:22:57.754Z,42.54
2023-04-16T10:23:57.662Z,42.79
2023-04-16T10:24:57.561Z,42.78
2023-04-16T10:25:57.686Z,42.67
2023-04-16T10:26:57.366Z,42.39
2023-04-16T10:27:58.496Z,41.13
2023-04-16T10:28:57.161Z,41.61
2023-04-16T10:29:57.067Z,40.55
2023-04-16T10:30:56.990Z,40.83
2023-04-16T10:31:56.847Z,40.58
2023-04-16T10:32:58.302Z,40.86
2023-04-16T10:33:56.656Z,39.74
2023-04-16T10:34:56.558Z,40.64
2023-04-16T10:36:07.075Z,40.66
2023-04-16T10:36:56.327Z,40.16
2023-04-16T10:37:56.252Z,40.07
2023-04-16T10:38:56.130Z,39.73
2023-04-16T10:39:56.015Z,39.27
2023-04-16T10:40:55.911Z,39.80
2023-04-16T10:41:55.797Z,39.71
2023-04-16T10:42:55.692Z,40.13
2023-04-16T10:43:55.584Z,39.87
2023-04-16T10:44:55.496Z,39.89
2023-04-16T10:45:55.419Z,39.50
2023-04-16T10:46:55.313Z,39.69
2023-04-16T10:47:55.230Z,40.20
2023-04-16T10:48:55.090Z,40.47
2023-04-16T10:49:54.980Z,39.54
2023-04-16T10:50:54.894Z,39.64
2023-04-16T10:51:54.794Z,39.88
2023-04-16T10:52:54.710Z,39.78
2023-04-16T10:53:54.619Z,40.39
2023-04-16T10:54:54.507Z,40.37
2023-04-16T10:55:54.394Z,40.36
2023-04-16T10:56:54.296Z,41.06
2023-04-16T10:57:54.204Z,40.52
2023-04-16T10:58:54.112Z,40.74
2023-04-16T10:59:54.007Z,40.06
2023-04-16T11:00:53.921Z,39.60
2023-04-16T11:01:53.915Z,40.43
2023-04-16T11:02:53.785Z,40.50
2023-04-16T11:03:53.902Z,40.84
2023-04-16T11:04:53.565Z,41.96
2023-04-16T11:05:53.445Z,42.17
2023-04-16T11:06:53.385Z,43.04
2023-04-16T11:07:53.335Z,42.83
2023-04-16T11:08:55.284Z,42.18
2023-04-16T11:09:53.349Z,41.35
2023-04-16T11:10:53.090Z,41.39
2023-04-16T11:11:52.990Z,41.37
2023-04-16T11:12:52.895Z,41.07
2023-04-16T11:13:52.790Z,40.87
2023-04-16T11:14:52.688Z,39.97
2023-04-16T11:15:52.610Z,39.66
2023-04-16T11:16:52.510Z,40.03
2023-04-16T11:17:52.468Z,39.94
2023-04-16T11:18:52.466Z,40.06
2023-04-16T11:19:53.575Z,40.58
2023-04-16T11:20:52.181Z,40.00
2023-04-16T11:21:52.125Z,39.96
2023-04-16T11:22:52.094Z,39.88
2023-04-16T11:23:52.027Z,38.67
2023-04-16T11:24:51.978Z,40.17
2023-04-16T11:25:51.960Z,41.57
2023-04-16T11:26:51.873Z,40.80
2023-04-16T11:27:51.862Z,40.99
2023-04-16T11:28:51.767Z,41.25
2023-04-16T11:29:51.727Z,40.78
2023-04-16T11:30:51.653Z,40.32
2023-04-16T11:31:51.769Z,40.47
2023-04-16T11:32:51.577Z,40.03
2023-04-16T11:33:51.523Z,39.65
2023-04-16T11:34:51.465Z,39.39
2023-04-16T11:35:51.416Z,39.51
2023-04-16T11:36:51.446Z,39.14
2023-04-16T11:37:51.343Z,39.10
2023-04-16T11:38:51.296Z,39.27
2023-04-16T11:39:51.294Z,39.03
2023-04-16T11:40:51.203Z,39.15
2023-04-16T11:41:51.190Z,38.92
2023-04-16T11:42:51.131Z,38.25
2023-04-16T11:43:51.075Z,38.87
2023-04-16T11:44:51.028Z,39.31
2023-04-16T11:45:50.985Z,40.65
2023-04-16T11:46:50.998Z,39.02
2023-04-16T11:47:50.902Z,39.30
2023-04-16T11:48:50.850Z,38.83
2023-04-16T11:49:50.809Z,39.85
2023-04-16T11:50:50.845Z,38.99
2023-04-16T11:51:50.715Z,38.06
2023-04-16T11:52:50.658Z,37.86
2023-04-16T11:53:50.597Z,37.56
2023-04-16T11:54:50.547Z,37.64
2023-04-16T11:55:50.498Z,37.27
2023-04-16T11:56:50.450Z,37.83
2023-04-16T11:57:51.698Z,37.84
2023-04-16T11:58:50.288Z,38.15
2023-04-16T12:00:03.081Z,37.45
2023-04-16T12:00:50.063Z,37.39
2023-04-16T12:01:50.016Z,37.39
2023-04-16T12:02:50.084Z,36.89
2023-04-16T12:03:50.005Z,37.12
2023-04-16T12:04:49.677Z,37.59
2023-04-16T12:05:49.512Z,36.53
2023-04-16T12:06:49.380Z,37.08
2023-04-16T12:07:49.264Z,35.84
2023-04-16T12:08:49.146Z,36.33
2023-04-16T12:09:49.038Z,35.39
2023-04-16T12:10:48.914Z,35.19
2023-04-16T12:11:48.801Z,35.01
2023-04-16T12:12:48.689Z,35.00
2023-04-16T12:13:48.590Z,34.99
2023-04-16T12:14:48.443Z,34.66
2023-04-16T12:15:48.324Z,35.64
2023-04-16T12:16:48.342Z,35.62
2023-04-16T12:17:48.143Z,35.27
2023-04-16T12:18:47.987Z,35.73
2023-04-16T12:19:47.873Z,35.77
2023-04-16T12:20:47.753Z,36.13
2023-04-16T12:21:47.673Z,36.29
2023-04-16T12:22:47.540Z,35.67
2023-04-16T12:23:47.404Z,37.20
2023-04-16T12:24:47.295Z,36.48
2023-04-16T12:25:47.184Z,36.87
2023-04-16T12:26:47.072Z,36.96
2023-04-16T12:27:47.086Z,36.87
2023-04-16T12:28:46.861Z,35.84
2023-04-16T12:29:46.794Z,34.97
2023-04-16T12:30:46.718Z,35.62
2023-04-16T12:31:46.628Z,35.24
2023-04-16T12:32:46.624Z,35.65
2023-04-16T12:33:46.488Z,35.22
2023-04-16T12:34:49.220Z,34.92
2023-04-16T12:35:46.297Z,35.05
2023-04-16T12:36:46.267Z,35.63
2023-04-16T12:37:46.066Z,35.58
2023-04-16T12:38:45.936Z,36.13
2023-04-16T12:39:47.559Z,36.38
2023-04-16T12:40:45.688Z,36.69
2023-04-16T12:41:45.566Z,37.24
2023-04-16T12:42:45.446Z,35.10
2023-04-16T12:43:45.330Z,35.09
2023-04-16T12:44:45.196Z,34.95
2023-04-16T12:45:45.123Z,34.78
2023-04-16T12:46:44.966Z,34.63
2023-04-16T12:47:44.874Z,34.30
2023-04-16T12:48:44.722Z,35.46
2023-04-16T12:49:44.585Z,35.73
2023-04-16T12:50:44.627Z,35.02
2023-04-16T12:51:44.322Z,34.48
2023-04-16T12:52:44.202Z,35.02